createdAt,value
2022-12-23T00:00:46.754Z,9.18
2022-12-23T00:03:35.325Z,8.57
2022-12-23T00:06:22.709Z,8.32
2022-12-23T00:09:10.198Z,8.50
2022-12-23T00:12:24.904Z,8.68
2022-12-23T00:15:13.133Z,9.57
2022-12-23T00:18:00.441Z,8.98
2022-12-23T00:20:47.763Z,8.75
2022-12-23T00:23:35.348Z,9.50
2022-12-23T00:26:24.627Z,9.25
2022-12-23T00:29:13.594Z,8.93
2022-12-23T00:32:01.286Z,9.38
2022-12-23T00:34:48.813Z,10.75
2022-12-23T00:37:36.356Z,9.85
2022-12-23T00:40:41.320Z,11.02
2022-12-23T00:43:28.699Z,10.75
2022-12-23T00:46:17.945Z,10.27
2022-12-23T00:49:23.432Z,10.52
2022-12-23T00:52:15.645Z,10.70
2022-12-23T00:55:03.101Z,9.43
2022-12-23T00:57:50.536Z,10.55
2022-12-23T01:00:54.703Z,8.75
2022-12-23T01:04:00.906Z,9.38
2022-12-23T01:06:48.130Z,9.77
2022-12-23T01:09:37.845Z,11.10
2022-12-23T01:12:27.931Z,10.00
2022-12-23T01:15:18.400Z,10.45
2022-12-23T01:18:08.295Z,7.72
2022-12-23T01:21:05.160Z,7.25
2022-12-23T01:23:55.630Z,7.28
2022-12-23T01:26:46.274Z,7.13
2022-12-23T01:29:36.734Z,8.05
2022-12-23T01:32:26.956Z,8.30
2022-12-23T01:35:18.288Z,8.63
2022-12-23T01:38:10.575Z,9.45
2022-12-23T01:41:00.986Z,10.70
2022-12-23T01:43:52.310Z,9.88
2022-12-23T01:46:42.749Z,10.73
2022-12-23T01:49:32.987Z,10.85
2022-12-23T01:52:23.636Z,10.98
2022-12-23T01:55:15.048Z,10.80
2022-12-23T01:58:11.424Z,10.27
2022-12-23T02:01:19.124Z,10.48
2022-12-23T02:04:09.754Z,10.25
2022-12-23T02:07:16.158Z,9.80
2022-12-23T02:10:05.453Z,9.88
2022-12-23T02:13:02.525Z,10.18
2022-12-23T02:16:14.309Z,10.98
2022-12-23T02:19:12.776Z,11.40
2022-12-23T02:22:20.453Z,11.50
2022-12-23T02:25:25.979Z,11.75
2022-12-23T02:28:40.870Z,11.18
2022-12-23T02:31:39.747Z,11.30
2022-12-23T02:34:32.840Z,11.95
2022-12-23T02:37:26.069Z,12.02
2022-12-23T02:40:20.834Z,11.83
2022-12-23T02:43:15.280Z,10.63
2022-12-23T02:46:09.142Z,10.57
2022-12-23T02:48:58.623Z,10.65
2022-12-23T02:51:49.992Z,10.60
2022-12-23T02:54:41.886Z,9.68
2022-12-23T02:57:33.831Z,9.20
2022-12-23T03:00:22.427Z,8.90
2022-12-23T03:03:10.486Z,7.10
2022-12-23T03:05:59.558Z,8.63
2022-12-23T03:08:47.003Z,9.55
2022-12-23T03:11:46.594Z,9.18
2022-12-23T03:14:46.421Z,8.52
2022-12-23T03:17:48.025Z,9.40
2022-12-23T03:20:43.473Z,9.77
2022-12-23T03:23:38.409Z,9.60
2022-12-23T03:26:32.269Z,10.95
2022-12-23T03:29:25.217Z,11.43
2022-12-23T03:32:15.621Z,10.85
2022-12-23T03:35:05.553Z,11.45
2022-12-23T03:37:55.630Z,11.85
2022-12-23T03:40:49.479Z,11.45
2022-12-23T03:43:48.354Z,11.63
2022-12-23T03:46:41.341Z,12.45
2022-12-23T03:49:35.058Z,11.90
2022-12-23T03:52:26.229Z,11.27
2022-12-23T03:55:19.282Z,12.30
2022-12-23T03:58:15.383Z,10.90
2022-12-23T04:01:14.184Z,12.63
2022-12-23T04:04:04.907Z,13.45
2022-12-23T04:06:56.078Z,12.70
2022-12-23T04:09:44.316Z,12.63
2022-12-23T04:12:32.509Z,12.57
2022-12-23T04:15:22.647Z,9.10
2022-12-23T04:18:11.952Z,10.02
2022-12-23T04:20:59.369Z,9.30
2022-12-23T04:23:46.939Z,7.82
2022-12-23T04:26:34.575Z,9.23
2022-12-23T04:29:22.042Z,8.80
2022-12-23T04:32:11.571Z,10.20
2022-12-23T04:34:58.947Z,8.75
2022-12-23T04:37:46.640Z,7.88
2022-12-23T04:40:34.197Z,8.07
2022-12-23T04:43:21.750Z,9.73
2022-12-23T04:46:09.402Z,9.48
2022-12-23T04:48:58.351Z,8.32
2022-12-23T04:51:45.617Z,8.90
2022-12-23T04:54:33.232Z,8.40
2022-12-23T04:57:20.818Z,8.05
2022-12-23T05:00:09.796Z,7.57
2022-12-23T05:02:57.374Z,6.47
2022-12-23T05:05:46.283Z,6.45
2022-12-23T05:08:33.922Z,6.13
2022-12-23T05:11:21.149Z,6.07
2022-12-23T05:14:10.363Z,6.72
2022-12-23T05:17:00.877Z,6.93
2022-12-23T05:19:52.699Z,5.78
2022-12-23T05:22:41.605Z,6.65
2022-12-23T05:25:29.387Z,6.75
2022-12-23T05:28:16.918Z,8.07
2022-12-23T05:31:06.740Z,8.45
2022-12-23T05:33:54.425Z,8.85
2022-12-23T05:36:41.828Z,8.43
2022-12-23T05:39:30.796Z,8.35
2022-12-23T05:42:19.482Z,7.95
2022-12-23T05:45:07.098Z,8.93
2022-12-23T05:47:54.130Z,9.65
2022-12-23T05:50:41.933Z,9.32
2022-12-23T05:53:28.986Z,7.80
2022-12-23T05:56:17.752Z,9.13
2022-12-23T05:59:05.451Z,8.20
2022-12-23T06:01:53.105Z,8.38
2022-12-23T06:04:40.575Z,7.57
2022-12-23T06:07:27.957Z,7.88
2022-12-23T06:10:15.538Z,9.68
2022-12-23T06:13:04.451Z,8.02
2022-12-23T06:15:51.889Z,8.82
2022-12-23T06:18:39.436Z,8.70
2022-12-23T06:21:27.023Z,8.80
2022-12-23T06:24:14.632Z,9.60
2022-12-23T06:27:02.138Z,9.80
2022-12-23T06:29:51.221Z,9.27
2022-12-23T06:32:39.120Z,10.73
2022-12-23T06:35:26.836Z,11.73
2022-12-23T06:38:14.501Z,11.23
2022-12-23T06:41:02.054Z,10.60
2022-12-23T06:43:54.148Z,11.10
2022-12-23T06:46:43.594Z,9.95
2022-12-23T06:49:31.296Z,11.25
2022-12-23T06:52:18.638Z,11.48
2022-12-23T06:55:06.931Z,11.20
2022-12-23T06:57:54.585Z,11.05
2022-12-23T07:00:42.298Z,11.77
2022-12-23T07:03:30.838Z,11.63
2022-12-23T07:06:19.405Z,11.93
2022-12-23T07:09:07.419Z,12.20
2022-12-23T07:11:54.844Z,12.18
2022-12-23T07:14:42.342Z,11.60
2022-12-23T07:17:29.814Z,11.82
2022-12-23T07:20:17.000Z,12.40
2022-12-23T07:23:05.703Z,12.32
2022-12-23T07:25:53.621Z,12.43
2022-12-23T07:28:41.233Z,11.70
2022-12-23T07:31:29.115Z,12.18
2022-12-23T07:34:16.745Z,10.95
2022-12-23T07:37:04.204Z,11.00
2022-12-23T07:39:53.232Z,10.90
2022-12-23T07:42:46.114Z,10.55
2022-12-23T07:45:34.632Z,10.90
2022-12-23T07:48:22.074Z,8.82
2022-12-23T07:51:10.161Z,10.40
2022-12-23T07:53:58.036Z,9.75
2022-12-23T07:56:46.891Z,10.13
2022-12-23T07:59:34.336Z,9.32
2022-12-23T08:02:25.513Z,9.45
2022-12-23T08:05:14.209Z,9.43
2022-12-23T08:08:01.589Z,10.38
2022-12-23T08:10:49.203Z,8.85
2022-12-23T08:13:39.639Z,9.25
2022-12-23T08:16:27.248Z,8.40
2022-12-23T08:19:14.777Z,10.15
2022-12-23T08:22:02.411Z,10.57
2022-12-23T08:24:49.863Z,10.63
2022-12-23T08:27:37.547Z,9.48
2022-12-23T08:30:26.623Z,10.88
2022-12-23T08:33:14.055Z,11.48
2022-12-23T08:36:02.089Z,10.73
2022-12-23T08:38:49.488Z,11.57
2022-12-23T08:41:38.809Z,10.25
2022-12-23T08:44:28.345Z,10.38
2022-12-23T08:47:17.318Z,11.93
2022-12-23T08:50:05.216Z,9.82
2022-12-23T08:52:52.776Z,10.50
2022-12-23T08:55:40.487Z,10.27
2022-12-23T08:58:27.763Z,11.15
2022-12-23T09:01:17.345Z,10.65
2022-12-23T09:04:07.434Z,11.25
2022-12-23T09:06:55.032Z,11.60
2022-12-23T09:09:42.651Z,11.68
2022-12-23T09:12:30.500Z,10.50
2022-12-23T09:15:18.001Z,10.82
2022-12-23T09:18:05.596Z,9.98
2022-12-23T09:21:00.110Z,9.15
2022-12-23T09:23:47.531Z,8.57
2022-12-23T09:26:35.408Z,7.10
2022-12-23T09:29:23.294Z,6.70
2022-12-23T09:32:10.854Z,8.32
2022-12-23T09:34:58.805Z,7.35
2022-12-23T09:37:47.758Z,7.95
2022-12-23T09:40:37.258Z,8.27
2022-12-23T09:43:34.334Z,9.98
2022-12-23T09:46:25.111Z,9.57
2022-12-23T09:49:14.475Z,10.93
2022-12-23T09:52:05.923Z,9.75
2022-12-23T09:54:56.535Z,10.48
2022-12-23T09:57:52.616Z,9.88
2022-12-23T10:00:44.377Z,10.35
2022-12-23T10:03:39.244Z,10.45
2022-12-23T10:06:28.344Z,10.80
2022-12-23T10:09:17.935Z,11.23
2022-12-23T10:12:15.071Z,11.48
2022-12-23T10:15:03.660Z,10.85
2022-12-23T10:17:55.707Z,12.70
2022-12-23T10:20:45.813Z,12.88
2022-12-23T10:23:36.993Z,11.23
2022-12-23T10:26:27.203Z,11.75
2022-12-23T10:29:19.984Z,13.98
2022-12-23T10:32:18.685Z,12.73
2022-12-23T10:35:15.658Z,13.00
2022-12-23T10:38:22.115Z,13.23
2022-12-23T10:41:20.619Z,14.73
2022-12-23T10:44:33.358Z,14.25
2022-12-23T10:47:29.078Z,13.23
2022-12-23T10:50:27.960Z,14.07
2022-12-23T10:53:26.206Z,13.43
2022-12-23T10:56:14.725Z,11.40
2022-12-23T10:59:02.848Z,10.93
2022-12-23T11:01:59.769Z,12.15
2022-12-23T11:04:49.070Z,10.55
2022-12-23T11:07:45.484Z,9.52
2022-12-23T11:10:34.650Z,9.90
2022-12-23T11:13:35.727Z,8.25
2022-12-23T11:16:25.735Z,8.90
2022-12-23T11:19:17.400Z,7.65
2022-12-23T11:22:04.740Z,7.45
2022-12-23T11:24:52.472Z,7.68
2022-12-23T11:27:44.504Z,7.35
2022-12-23T11:30:34.081Z,5.78
2022-12-23T11:33:23.592Z,6.07
2022-12-23T11:36:18.887Z,5.75
2022-12-23T11:39:20.867Z,5.88
2022-12-23T11:42:13.597Z,5.50
2022-12-23T11:45:01.735Z,5.95
2022-12-23T11:47:50.245Z,6.10
2022-12-23T11:50:39.786Z,5.60
2022-12-23T11:53:29.270Z,6.15
2022-12-23T11:56:16.756Z,7.00
2022-12-23T11:59:08.001Z,6.22
2022-12-23T12:01:58.565Z,6.43
2022-12-23T12:04:56.472Z,6.70
2022-12-23T12:07:44.801Z,6.88
2022-12-23T12:10:35.091Z,6.25
2022-12-23T12:13:27.621Z,5.93
2022-12-23T12:16:28.246Z,6.03
2022-12-23T12:19:23.174Z,5.70
2022-12-23T12:22:15.432Z,6.35
2022-12-23T12:25:12.993Z,5.60
2022-12-23T12:28:05.492Z,5.65
2022-12-23T12:30:57.682Z,6.07
2022-12-23T12:33:50.557Z,5.35
2022-12-23T12:36:43.532Z,5.75
2022-12-23T12:39:32.410Z,5.55
2022-12-23T12:42:25.920Z,5.03
2022-12-23T12:45:21.811Z,4.97
2022-12-23T12:48:23.842Z,4.13
2022-12-23T12:51:18.056Z,4.40
2022-12-23T12:54:14.786Z,4.10
2022-12-23T12:57:04.112Z,3.78
2022-12-23T12:59:59.904Z,4.63
2022-12-23T13:03:12.393Z,5.72
2022-12-23T13:06:13.059Z,3.22
2022-12-23T13:09:10.922Z,3.83
2022-12-23T13:12:05.092Z,3.90
2022-12-23T13:17:51.203Z,3.63
2022-12-23T13:20:45.832Z,4.10
2022-12-23T13:23:44.777Z,3.55
2022-12-23T13:26:38.359Z,3.65
2022-12-23T13:29:38.360Z,3.78
2022-12-23T13:32:39.390Z,4.25
2022-12-23T13:35:36.579Z,3.90
2022-12-23T13:38:41.525Z,3.70
2022-12-23T13:41:32.528Z,3.97
2022-12-23T13:44:20.873Z,3.28
2022-12-23T13:47:16.912Z,3.92
2022-12-23T13:50:12.202Z,5.25
2022-12-23T13:53:11.466Z,4.53
2022-12-23T13:56:10.912Z,4.60
2022-12-23T13:58:59.177Z,3.83
2022-12-23T14:01:49.365Z,4.22
2022-12-23T14:04:37.700Z,4.38
2022-12-23T14:07:25.443Z,3.95
2022-12-23T14:10:21.761Z,3.55
2022-12-23T14:13:16.593Z,3.60
2022-12-23T14:16:19.761Z,3.28
2022-12-23T14:19:32.761Z,3.67
2022-12-23T14:22:35.638Z,3.38
2022-12-23T14:25:36.118Z,3.15
2022-12-23T14:28:35.133Z,2.80
2022-12-23T14:31:36.018Z,2.97
2022-12-23T14:34:28.953Z,3.60
2022-12-23T14:37:33.385Z,2.80
2022-12-23T14:40:50.855Z,2.40
2022-12-23T14:43:56.032Z,2.22
2022-12-23T14:46:57.794Z,2.72
2022-12-23T14:49:45.558Z,2.55
2022-12-23T14:52:49.115Z,2.03
2022-12-23T14:55:47.026Z,2.30
2022-12-23T14:59:00.495Z,1.88
2022-12-23T15:01:51.024Z,1.98
2022-12-23T15:04:45.394Z,2.05
2022-12-23T15:07:36.289Z,2.42
2022-12-23T15:10:25.841Z,2.53
2022-12-23T15:13:18.243Z,2.63
2022-12-23T15:16:07.257Z,2.55
2022-12-23T15:18:55.966Z,3.08
2022-12-23T15:21:46.886Z,3.40
2022-12-23T15:24:36.736Z,3.60
2022-12-23T15:27:27.658Z,3.88
2022-12-23T15:30:16.999Z,3.88
2022-12-23T15:33:35.044Z,4.38
2022-12-23T15:36:19.699Z,5.60
2022-12-23T15:39:11.041Z,5.22
2022-12-23T15:41:58.835Z,5.70
2022-12-23T15:44:46.234Z,6.63
2022-12-23T15:47:39.832Z,6.50
2022-12-23T15:50:29.728Z,7.43
2022-12-23T15:53:18.319Z,7.70
2022-12-23T15:56:08.983Z,8.43
2022-12-23T15:58:57.769Z,8.48
2022-12-23T16:01:45.373Z,9.02
2022-12-23T16:04:33.167Z,8.45
2022-12-23T16:07:27.598Z,9.45
2022-12-23T16:10:16.951Z,10.93
2022-12-23T16:13:04.452Z,10.50
2022-12-23T16:15:52.112Z,11.55
2022-12-23T16:18:47.607Z,10.23
2022-12-23T16:21:37.979Z,10.45
2022-12-23T16:24:27.043Z,11.55
2022-12-23T16:27:17.564Z,11.85
2022-12-23T16:30:11.364Z,12.82
2022-12-23T16:33:02.233Z,12.82
2022-12-23T16:35:49.703Z,12.70
2022-12-23T16:38:37.096Z,10.98
2022-12-23T16:41:26.125Z,9.85
2022-12-23T16:44:13.794Z,11.32
2022-12-23T16:47:07.998Z,9.02
2022-12-23T16:49:55.639Z,11.48
2022-12-23T16:52:43.390Z,11.55
2022-12-23T16:55:30.963Z,12.98
2022-12-23T16:58:19.931Z,11.75
2022-12-23T17:01:07.877Z,13.93
2022-12-23T17:03:55.918Z,12.93
2022-12-23T17:06:43.351Z,12.60
2022-12-23T17:09:31.011Z,11.95
2022-12-23T17:12:18.496Z,10.00
2022-12-23T17:15:08.266Z,8.38
2022-12-23T17:17:56.251Z,4.93
2022-12-23T17:20:46.016Z,6.30
2022-12-23T17:23:33.776Z,5.53
2022-12-23T17:26:20.866Z,4.32
2022-12-23T17:29:08.075Z,4.57
2022-12-23T17:31:57.003Z,4.30
2022-12-23T17:34:44.586Z,5.05
2022-12-23T17:37:31.928Z,4.90
2022-12-23T17:40:20.619Z,4.82
2022-12-23T17:43:10.712Z,4.80
2022-12-23T17:45:58.220Z,4.05
2022-12-23T17:48:47.949Z,4.22
2022-12-23T17:51:40.988Z,4.13
2022-12-23T17:54:29.006Z,4.32
2022-12-23T17:57:20.141Z,4.03
2022-12-23T18:00:09.192Z,3.45
2022-12-23T18:02:56.493Z,4.82
2022-12-23T18:05:45.189Z,3.75
2022-12-23T18:08:32.805Z,2.75
2022-12-23T18:11:23.571Z,4.47
2022-12-23T18:14:17.320Z,4.85
2022-12-23T18:17:05.025Z,5.43
2022-12-23T18:19:52.833Z,4.57
2022-12-23T18:22:41.789Z,3.90
2022-12-23T18:25:29.434Z,3.60
2022-12-23T18:28:17.224Z,3.03
2022-12-23T18:31:05.252Z,3.42
2022-12-23T18:33:53.098Z,3.30
2022-12-23T18:36:40.817Z,3.15
2022-12-23T18:39:29.599Z,1.88
2022-12-23T18:42:19.101Z,3.05
2022-12-23T18:45:22.292Z,3.13
2022-12-23T18:48:10.591Z,3.05
2022-12-23T18:50:58.071Z,3.38
2022-12-23T18:53:46.296Z,2.97
2022-12-23T18:56:35.037Z,2.95
2022-12-23T18:59:30.012Z,3.00
2022-12-23T19:02:17.908Z,2.65
2022-12-23T19:05:07.382Z,3.15
2022-12-23T19:07:56.173Z,3.60
2022-12-23T19:10:45.971Z,3.90
2022-12-23T19:13:34.741Z,3.67
2022-12-23T19:16:22.782Z,3.67
2022-12-23T19:19:12.531Z,4.40
2022-12-23T19:21:59.796Z,3.80
2022-12-23T19:25:04.713Z,3.78
2022-12-23T19:27:53.633Z,3.80
2022-12-23T19:30:43.031Z,3.97
2022-12-23T19:33:30.602Z,4.10
2022-12-23T19:36:23.807Z,3.70
2022-12-23T19:39:16.613Z,4.90
2022-12-23T19:42:04.628Z,4.13
2022-12-23T19:44:52.644Z,4.28
2022-12-23T19:47:41.338Z,4.20
2022-12-23T19:50:29.064Z,4.30
2022-12-23T19:53:16.807Z,4.88
2022-12-23T19:56:06.226Z,4.28
2022-12-23T19:58:53.660Z,4.03
2022-12-23T20:01:41.454Z,4.43
2022-12-23T20:04:32.002Z,3.20
2022-12-23T20:07:19.531Z,5.05
2022-12-23T20:10:08.592Z,4.10
2022-12-23T20:12:55.879Z,3.97
2022-12-23T20:15:43.575Z,3.47
2022-12-23T20:18:30.795Z,4.07
2022-12-23T20:21:19.826Z,3.40
2022-12-23T20:24:08.168Z,4.38
2022-12-23T20:26:55.580Z,4.30
2022-12-23T20:29:43.070Z,3.22
2022-12-23T20:32:30.708Z,4.05
2022-12-23T20:35:18.398Z,3.30
2022-12-23T20:38:07.741Z,3.95
2022-12-23T20:40:55.602Z,3.67
2022-12-23T20:43:46.097Z,3.60
2022-12-23T20:46:40.158Z,3.63
2022-12-23T20:49:27.396Z,4.47
2022-12-23T20:52:14.861Z,4.07
2022-12-23T20:55:03.936Z,4.07
2022-12-23T20:57:51.500Z,3.72
2022-12-23T21:00:39.015Z,3.88
2022-12-23T21:03:26.660Z,3.63
2022-12-23T21:06:14.205Z,3.88
2022-12-23T21:09:02.610Z,4.55
2022-12-23T21:11:51.619Z,4.13
2022-12-23T21:14:39.450Z,4.32
2022-12-23T21:17:27.133Z,4.38
2022-12-23T21:20:14.582Z,3.67
2022-12-23T21:23:01.964Z,4.07
2022-12-23T21:25:49.508Z,3.70
2022-12-23T21:28:39.143Z,4.32
2022-12-23T21:31:27.413Z,4.03
2022-12-23T21:34:15.604Z,4.13
2022-12-23T21:37:03.230Z,4.03
2022-12-23T21:39:50.596Z,3.38
2022-12-23T21:42:38.128Z,4.68
2022-12-23T21:45:27.030Z,2.72
2022-12-23T21:48:14.611Z,3.08
2022-12-23T21:51:06.905Z,2.95
2022-12-23T21:53:56.496Z,3.13
2022-12-23T21:56:43.712Z,3.13
2022-12-23T21:59:35.149Z,3.75
2022-12-23T22:02:24.480Z,2.80
2022-12-23T22:05:11.835Z,3.20
2022-12-23T22:07:59.471Z,3.92
2022-12-23T22:10:48.517Z,3.35
2022-12-23T22:13:36.526Z,2.95
2022-12-23T22:16:25.777Z,3.67
2022-12-23T22:19:14.868Z,3.80
2022-12-23T22:22:02.602Z,3.88
2022-12-23T22:24:50.136Z,4.10
2022-12-23T22:27:37.702Z,3.53
2022-12-23T22:30:25.268Z,4.47
2022-12-23T22:33:12.936Z,3.38
2022-12-23T22:36:01.805Z,3.75
2022-12-23T22:38:53.323Z,4.13
2022-12-23T22:41:40.523Z,3.30
2022-12-23T22:44:28.105Z,2.95
2022-12-23T22:47:15.699Z,3.78
2022-12-23T22:50:03.207Z,4.10
2022-12-23T22:52:52.227Z,4.22
2022-12-23T22:55:39.746Z,3.75
2022-12-23T22:58:27.799Z,3.17
2022-12-23T23:01:22.355Z,3.17
2022-12-23T23:04:11.424Z,3.00
2022-12-23T23:06:58.963Z,5.10
2022-12-23T23:09:48.112Z,4.13
2022-12-23T23:12:35.419Z,3.40
2022-12-23T23:15:23.060Z,2.85
2022-12-23T23:18:10.588Z,3.95
2022-12-23T23:20:58.434Z,4.03
2022-12-23T23:23:46.486Z,3.95
2022-12-23T23:26:35.330Z,3.83
2022-12-23T23:29:22.833Z,4.72
2022-12-23T23:32:10.590Z,4.50
2022-12-23T23:34:57.835Z,4.63
2022-12-23T23:37:45.551Z,4.68
2022-12-23T23:40:33.007Z,3.47
2022-12-23T23:43:22.175Z,4.38
2022-12-23T23:46:09.503Z,3.60
2022-12-23T23:48:56.885Z,2.95
2022-12-23T23:51:44.498Z,4.45
2022-12-23T23:54:31.961Z,4.00
2022-12-23T23:57:19.256Z,3.28
